createdAt,value
2023-05-16T00:00:08.312Z,10.10
2023-05-16T00:00:20.761Z,10.20
2023-05-16T00:00:32.930Z,9.90
2023-05-16T00:00:46.102Z,10.00
2023-05-16T00:00:58.528Z,10.80
2023-05-16T00:01:11.554Z,10.60
2023-05-16T00:01:23.992Z,10.10
2023-05-16T00:01:35.864Z,10.40
2023-05-16T00:01:46.753Z,10.80
2023-05-16T00:01:57.491Z,10.80
2023-05-16T00:02:08.177Z,11.10
2023-05-16T00:02:19.943Z,11.20
2023-05-16T00:02:32.443Z,11.00
2023-05-16T00:02:45.277Z,11.00
2023-05-16T00:02:56.112Z,10.60
2023-05-16T00:03:09.403Z,10.60
2023-05-16T00:03:21.673Z,10.30
2023-05-16T00:03:32.599Z,9.90
2023-05-16T00:03:43.495Z,9.70
2023-05-16T00:03:56.048Z,10.20
2023-05-16T00:04:07.024Z,11.00
2023-05-16T00:04:17.846Z,11.10
2023-05-16T00:04:29.738Z,10.60
2023-05-16T00:04:43.061Z,10.30
2023-05-16T00:04:53.792Z,11.00
2023-05-16T00:05:04.542Z,10.80
2023-05-16T00:05:15.295Z,10.50
2023-05-16T00:05:26.975Z,9.70
2023-05-16T00:05:38.666Z,9.40
2023-05-16T00:05:51.837Z,10.00
2023-05-16T00:06:04.291Z,10.60
2023-05-16T00:06:16.220Z,9.90
2023-05-16T00:06:27.933Z,10.20
2023-05-16T00:06:38.704Z,11.10
2023-05-16T00:06:50.409Z,11.00
2023-05-16T00:07:01.156Z,10.20
2023-05-16T00:07:12.911Z,10.50
2023-05-16T00:07:24.627Z,10.40
2023-05-16T00:07:35.383Z,10.20
2023-05-16T00:07:46.125Z,10.10
2023-05-16T00:07:56.848Z,10.30
2023-05-16T00:08:09.338Z,10.40
2023-05-16T00:08:20.163Z,11.20
2023-05-16T00:08:31.886Z,10.70
2023-05-16T00:08:43.597Z,10.50
2023-05-16T00:08:56.024Z,10.30
2023-05-16T00:09:06.788Z,10.70
2023-05-16T00:09:17.547Z,10.40
2023-05-16T00:09:29.227Z,10.10
2023-05-16T00:09:39.928Z,10.80
2023-05-16T00:09:50.678Z,11.10
2023-05-16T00:10:01.392Z,11.40
2023-05-16T00:10:12.118Z,11.20
2023-05-16T00:10:22.822Z,11.20
2023-05-16T00:10:33.604Z,10.90
2023-05-16T00:10:45.334Z,10.40
2023-05-16T00:10:56.094Z,9.80
2023-05-16T00:11:06.825Z,10.10
2023-05-16T00:11:17.554Z,10.30
2023-05-16T00:11:28.242Z,10.30
2023-05-16T00:11:38.977Z,10.30
2023-05-16T00:11:49.656Z,10.20
2023-05-16T00:12:00.401Z,10.50
2023-05-16T00:12:11.132Z,10.90
2023-05-16T00:12:21.851Z,10.30
2023-05-16T00:12:33.661Z,10.10
2023-05-16T00:12:44.377Z,10.30
2023-05-16T00:12:57.064Z,10.70
2023-05-16T00:13:07.747Z,10.70
2023-05-16T00:13:18.472Z,10.60
2023-05-16T00:13:30.158Z,10.50
2023-05-16T00:13:40.861Z,9.90
2023-05-16T00:13:54.041Z,9.70
2023-05-16T00:14:06.462Z,10.30
2023-05-16T00:14:17.203Z,10.60
2023-05-16T00:14:27.890Z,10.80
2023-05-16T00:14:38.620Z,10.80
2023-05-16T00:14:49.300Z,11.20
2023-05-16T00:15:01.027Z,11.40
2023-05-16T00:15:11.789Z,10.90
2023-05-16T00:15:23.478Z,10.10
2023-05-16T00:15:34.168Z,10.00
2023-05-16T00:15:44.865Z,10.00
2023-05-16T00:15:55.558Z,10.40
2023-05-16T00:16:07.269Z,10.10
2023-05-16T00:16:18.026Z,10.00
2023-05-16T00:16:28.806Z,9.90
2023-05-16T00:16:41.318Z,10.20
2023-05-16T00:16:53.282Z,10.10
2023-05-16T00:17:05.318Z,10.20
2023-05-16T00:17:16.196Z,9.80
2023-05-16T00:17:26.917Z,9.70
2023-05-16T00:17:38.593Z,10.00
2023-05-16T00:17:49.332Z,10.30
2023-05-16T00:18:00.059Z,10.40
2023-05-16T00:18:10.816Z,11.10
2023-05-16T00:18:21.555Z,10.30
2023-05-16T00:18:34.754Z,10.00
2023-05-16T00:18:45.668Z,9.50
2023-05-16T00:18:56.502Z,9.90
2023-05-16T00:19:07.238Z,10.30
2023-05-16T00:19:18.018Z,10.50
2023-05-16T00:19:29.750Z,10.80
2023-05-16T00:19:40.689Z,10.80
2023-05-16T00:19:51.377Z,10.10
2023-05-16T00:20:03.061Z,9.10
2023-05-16T00:20:13.758Z,9.40
2023-05-16T00:20:24.542Z,9.70
2023-05-16T00:20:35.319Z,10.00
2023-05-16T00:20:46.060Z,9.70
2023-05-16T00:20:56.748Z,10.00
2023-05-16T00:21:07.448Z,10.10
2023-05-16T00:21:20.015Z,10.00
2023-05-16T00:21:32.342Z,10.50
2023-05-16T00:21:44.002Z,10.80
2023-05-16T00:21:56.408Z,10.50
2023-05-16T00:22:08.066Z,9.70
2023-05-16T00:22:18.818Z,10.10
2023-05-16T00:22:29.519Z,10.10
2023-05-16T00:22:40.204Z,10.20
2023-05-16T00:22:51.001Z,10.70
2023-05-16T00:23:01.678Z,10.90
2023-05-16T00:23:12.388Z,10.40
2023-05-16T00:23:23.086Z,10.40
2023-05-16T00:23:34.991Z,10.50
2023-05-16T00:23:45.753Z,10.70
2023-05-16T00:23:56.453Z,10.40
2023-05-16T00:24:07.182Z,10.30
2023-05-16T00:24:17.933Z,10.60
2023-05-16T00:24:28.611Z,10.50
2023-05-16T00:24:41.043Z,10.30
2023-05-16T00:24:51.818Z,10.40
2023-05-16T00:25:02.503Z,10.50
2023-05-16T00:25:14.165Z,10.50
2023-05-16T00:25:24.857Z,10.80
2023-05-16T00:25:35.653Z,10.60
2023-05-16T00:25:46.391Z,10.30
2023-05-16T00:25:57.079Z,10.50
2023-05-16T00:26:08.038Z,10.60
2023-05-16T00:26:18.764Z,11.20
2023-05-16T00:26:29.464Z,11.10
2023-05-16T00:26:40.214Z,10.80
2023-05-16T00:26:50.906Z,10.70
2023-05-16T00:27:03.290Z,10.90
2023-05-16T00:27:14.018Z,11.50
2023-05-16T00:27:26.184Z,11.00
2023-05-16T00:27:37.857Z,10.90
2023-05-16T00:27:50.075Z,10.70
2023-05-16T00:28:01.708Z,11.10
2023-05-16T00:28:12.618Z,10.90
2023-05-16T00:28:23.339Z,10.70
2023-05-16T00:28:34.058Z,10.10
2023-05-16T00:28:47.412Z,9.80
2023-05-16T00:29:01.033Z,9.50
2023-05-16T00:29:11.740Z,9.40
2023-05-16T00:29:24.155Z,9.80
2023-05-16T00:29:37.092Z,9.70
2023-05-16T00:29:50.257Z,9.60
2023-05-16T00:30:01.043Z,9.90
2023-05-16T00:30:11.722Z,10.60
2023-05-16T00:30:22.410Z,10.70
2023-05-16T00:30:33.094Z,10.30
2023-05-16T00:30:43.844Z,10.50
2023-05-16T00:30:55.537Z,10.70
2023-05-16T00:31:06.268Z,10.60
2023-05-16T00:31:16.979Z,10.10
2023-05-16T00:31:27.709Z,10.60
2023-05-16T00:31:38.427Z,10.90
2023-05-16T00:31:49.203Z,10.50
2023-05-16T00:31:59.983Z,11.40
2023-05-16T00:32:10.754Z,11.30
2023-05-16T00:32:21.742Z,11.70
2023-05-16T00:32:34.303Z,10.40
2023-05-16T00:32:46.961Z,10.50
2023-05-16T00:32:57.659Z,10.50
2023-05-16T00:33:11.390Z,10.00
2023-05-16T00:33:22.062Z,9.40
2023-05-16T00:33:35.232Z,9.70
2023-05-16T00:33:47.451Z,10.00
2023-05-16T00:33:58.148Z,10.20
2023-05-16T00:34:10.333Z,10.50
2023-05-16T00:34:21.211Z,10.60
2023-05-16T00:34:33.947Z,10.10
2023-05-16T00:34:45.666Z,10.10
2023-05-16T00:34:56.344Z,10.70
2023-05-16T00:35:09.020Z,10.60
2023-05-16T00:35:19.713Z,9.70
2023-05-16T00:35:30.419Z,9.80
2023-05-16T00:35:42.813Z,9.60
2023-05-16T00:35:55.234Z,9.70
2023-05-16T00:36:07.639Z,10.10
2023-05-16T00:36:18.398Z,10.60
2023-05-16T00:36:29.114Z,10.60
2023-05-16T00:36:39.799Z,11.00
2023-05-16T00:36:50.517Z,11.60
2023-05-16T00:37:01.223Z,11.30
2023-05-16T00:37:12.867Z,10.60
2023-05-16T00:37:24.522Z,9.70
2023-05-16T00:37:35.216Z,10.20
2023-05-16T00:37:46.879Z,11.10
2023-05-16T00:37:59.283Z,11.40
2023-05-16T00:38:10.008Z,10.90
2023-05-16T00:38:20.729Z,10.70
2023-05-16T00:38:32.397Z,10.30
2023-05-16T00:38:44.057Z,11.10
2023-05-16T00:38:54.734Z,11.30
2023-05-16T00:39:06.412Z,11.00
2023-05-16T00:39:18.089Z,10.60
2023-05-16T00:39:31.245Z,10.20
2023-05-16T00:39:42.248Z,10.70
2023-05-16T00:39:52.982Z,10.50
2023-05-16T00:40:04.649Z,11.40
2023-05-16T00:40:17.052Z,11.20
2023-05-16T00:40:28.006Z,11.10
2023-05-16T00:40:38.812Z,10.40
2023-05-16T00:40:49.495Z,10.10
2023-05-16T00:41:00.195Z,9.30
2023-05-16T00:41:10.903Z,9.70
2023-05-16T00:41:21.618Z,10.30
2023-05-16T00:41:33.305Z,11.20
2023-05-16T00:41:44.010Z,11.20
2023-05-16T00:41:54.684Z,10.40
2023-05-16T00:42:05.376Z,9.90
2023-05-16T00:42:16.078Z,10.30
2023-05-16T00:42:28.511Z,10.90
2023-05-16T00:42:40.415Z,10.80
2023-05-16T00:42:51.125Z,10.10
2023-05-16T00:43:01.837Z,10.10
2023-05-16T00:43:12.549Z,10.40
2023-05-16T00:43:24.196Z,11.00
2023-05-16T00:43:34.909Z,11.30
2023-05-16T00:43:45.583Z,11.40
2023-05-16T00:43:56.267Z,11.20
2023-05-16T00:44:06.960Z,11.70
2023-05-16T00:44:17.672Z,11.90
2023-05-16T00:44:30.859Z,11.70
2023-05-16T00:44:42.526Z,11.60
2023-05-16T00:44:53.229Z,11.00
2023-05-16T00:45:03.986Z,10.40
2023-05-16T00:45:14.910Z,11.00
2023-05-16T00:45:27.291Z,10.40
2023-05-16T00:45:37.989Z,10.50
2023-05-16T00:45:50.148Z,10.60
2023-05-16T00:46:00.917Z,11.20
2023-05-16T00:46:11.679Z,10.60
2023-05-16T00:46:22.386Z,11.20
2023-05-16T00:46:33.162Z,12.10
2023-05-16T00:46:44.063Z,12.40
2023-05-16T00:46:54.839Z,11.30
2023-05-16T00:47:05.599Z,11.10
2023-05-16T00:47:18.748Z,11.00
2023-05-16T00:47:29.536Z,11.30
2023-05-16T00:47:41.256Z,10.70
2023-05-16T00:47:52.021Z,11.50
2023-05-16T00:48:02.780Z,11.70
2023-05-16T00:48:15.035Z,12.60
2023-05-16T00:48:25.821Z,12.10
2023-05-16T00:48:36.497Z,11.40
2023-05-16T00:48:48.226Z,10.80
2023-05-16T00:48:58.970Z,10.40
2023-05-16T00:49:12.153Z,10.40
2023-05-16T00:49:22.877Z,10.70
2023-05-16T00:49:35.080Z,10.90
2023-05-16T00:49:47.800Z,11.10
2023-05-16T00:49:58.796Z,11.20
2023-05-16T00:50:09.497Z,11.30
2023-05-16T00:50:22.174Z,11.50
2023-05-16T00:50:35.873Z,11.50
2023-05-16T00:50:48.790Z,11.50
2023-05-16T00:50:59.734Z,11.20
2023-05-16T00:51:12.241Z,10.30
2023-05-16T00:51:22.981Z,10.70
2023-05-16T00:51:34.650Z,10.80
2023-05-16T00:51:47.809Z,11.00
2023-05-16T00:51:59.559Z,10.50
2023-05-16T00:52:10.474Z,11.00
2023-05-16T00:52:21.210Z,11.30
2023-05-16T00:52:31.927Z,11.60
2023-05-16T00:52:42.631Z,11.40
2023-05-16T00:52:53.359Z,11.20
2023-05-16T00:53:04.097Z,10.40
2023-05-16T00:53:14.824Z,9.80
2023-05-16T00:53:25.609Z,10.30
2023-05-16T00:53:36.344Z,10.50
2023-05-16T00:53:48.286Z,10.40
2023-05-16T00:53:58.998Z,10.50
2023-05-16T00:54:09.781Z,10.70
2023-05-16T00:54:20.503Z,11.00
2023-05-16T00:54:31.260Z,11.40
2023-05-16T00:54:43.668Z,11.70
2023-05-16T00:54:55.370Z,11.80
2023-05-16T00:55:07.055Z,11.50
2023-05-16T00:55:18.816Z,10.40
2023-05-16T00:55:31.509Z,11.10
2023-05-16T00:55:42.309Z,11.20
2023-05-16T00:55:54.749Z,11.80
2023-05-16T00:56:05.483Z,11.20
2023-05-16T00:56:18.154Z,11.60
2023-05-16T00:56:28.877Z,11.40
2023-05-16T00:56:39.652Z,11.00
2023-05-16T00:56:50.392Z,10.60
2023-05-16T00:57:01.116Z,10.90
2023-05-16T00:57:11.804Z,11.40
2023-05-16T00:57:23.513Z,11.70
2023-05-16T00:57:34.239Z,12.00
2023-05-16T00:57:44.931Z,11.60
2023-05-16T00:57:55.655Z,11.50
2023-05-16T00:58:07.361Z,11.40
2023-05-16T00:58:18.038Z,10.70
2023-05-16T00:58:28.757Z,11.00
2023-05-16T00:58:41.191Z,10.60
2023-05-16T00:58:51.891Z,11.10
2023-05-16T00:59:03.582Z,10.50
2023-05-16T00:59:14.331Z,11.30
2023-05-16T00:59:25.058Z,11.70
2023-05-16T00:59:35.768Z,11.00
2023-05-16T00:59:46.499Z,11.10
2023-05-16T00:59:58.183Z,11.40
2023-05-16T01:00:08.904Z,12.30
2023-05-16T01:00:19.592Z,12.20
2023-05-16T01:00:30.341Z,12.10
2023-05-16T01:00:42.740Z,11.40
2023-05-16T01:00:53.474Z,11.10
2023-05-16T01:01:05.256Z,11.10
2023-05-16T01:01:16.093Z,11.70
2023-05-16T01:01:27.860Z,12.20
2023-05-16T01:01:38.655Z,12.10
2023-05-16T01:01:49.420Z,12.10
2023-05-16T01:02:02.766Z,11.90
2023-05-16T01:02:13.589Z,11.10
2023-05-16T01:02:25.389Z,11.20
2023-05-16T01:02:38.129Z,10.90
2023-05-16T01:02:51.649Z,10.50
2023-05-16T01:03:03.426Z,10.40
2023-05-16T01:03:16.578Z,10.90
2023-05-16T01:03:28.361Z,11.50
2023-05-16T01:03:39.203Z,11.30
2023-05-16T01:03:51.693Z,10.50
2023-05-16T01:04:04.451Z,10.10
2023-05-16T01:04:16.379Z,9.70
2023-05-16T01:04:28.540Z,10.60
2023-05-16T01:04:41.732Z,10.60
2023-05-16T01:04:54.137Z,10.40
2023-05-16T01:05:05.900Z,10.30
2023-05-16T01:05:16.630Z,10.40
2023-05-16T01:05:27.544Z,10.70
2023-05-16T01:05:40.534Z,10.90
2023-05-16T01:05:51.266Z,11.50
2023-05-16T01:06:02.040Z,11.10
2023-05-16T01:06:12.756Z,11.00
2023-05-16T01:06:24.925Z,9.90
2023-05-16T01:06:35.738Z,10.40
2023-05-16T01:06:46.490Z,10.00
2023-05-16T01:06:57.206Z,10.60
2023-05-16T01:07:09.625Z,10.40
2023-05-16T01:07:22.560Z,10.50
2023-05-16T01:07:33.294Z,10.30
2023-05-16T01:07:44.018Z,10.50
2023-05-16T01:07:55.756Z,11.10
2023-05-16T01:08:07.471Z,11.10
2023-05-16T01:08:18.184Z,10.60
2023-05-16T01:08:28.895Z,10.20
2023-05-16T01:08:39.652Z,10.40
2023-05-16T01:08:50.377Z,10.80
2023-05-16T01:09:01.093Z,10.90
2023-05-16T01:09:11.835Z,10.60
2023-05-16T01:09:22.557Z,10.60
2023-05-16T01:09:33.258Z,10.80
2023-05-16T01:09:44.962Z,10.50
2023-05-16T01:09:55.684Z,10.60
2023-05-16T01:10:08.858Z,10.70
2023-05-16T01:10:21.059Z,10.90
2023-05-16T01:10:32.744Z,10.40
2023-05-16T01:10:43.462Z,10.90
2023-05-16T01:10:55.146Z,10.90
2023-05-16T01:11:07.624Z,11.30
2023-05-16T01:11:20.823Z,10.90
2023-05-16T01:11:31.590Z,10.30
2023-05-16T01:11:42.311Z,10.60
2023-05-16T01:11:53.987Z,10.70
2023-05-16T01:12:04.734Z,10.90
2023-05-16T01:12:15.513Z,10.80
2023-05-16T01:12:26.980Z,11.30
2023-05-16T01:12:37.696Z,12.20
2023-05-16T01:12:53.384Z,11.90
2023-05-16T01:13:09.579Z,11.70
2023-05-16T01:13:20.294Z,12.30
2023-05-16T01:13:31.058Z,13.20
2023-05-16T01:13:41.775Z,13.50
2023-05-16T01:13:52.495Z,13.10
2023-05-16T01:14:04.191Z,12.50
2023-05-16T01:14:14.900Z,12.10
2023-05-16T01:14:25.614Z,11.70
2023-05-16T01:14:38.004Z,11.30
2023-05-16T01:14:49.797Z,11.30
2023-05-16T01:15:02.207Z,11.50
2023-05-16T01:15:14.624Z,11.80
2023-05-16T01:15:25.514Z,12.30
2023-05-16T01:15:38.131Z,12.00
2023-05-16T01:15:49.841Z,13.20
2023-05-16T01:16:02.293Z,13.60
2023-05-16T01:16:13.130Z,13.80
2023-05-16T01:16:23.940Z,13.50
2023-05-16T01:16:35.733Z,12.60
2023-05-16T01:16:47.466Z,12.60
2023-05-16T01:16:59.640Z,11.90
2023-05-16T01:17:11.303Z,12.60
2023-05-16T01:17:23.328Z,12.50
2023-05-16T01:17:36.517Z,12.30
2023-05-16T01:17:48.746Z,11.00
2023-05-16T01:17:59.494Z,10.70
2023-05-16T01:18:10.211Z,11.00
2023-05-16T01:18:20.885Z,11.20
2023-05-16T01:18:33.108Z,11.00
2023-05-16T01:18:44.800Z,11.40
2023-05-16T01:18:55.476Z,12.60
2023-05-16T01:19:06.267Z,12.90
2023-05-16T01:19:18.030Z,12.20
2023-05-16T01:19:28.734Z,12.20
2023-05-16T01:19:39.496Z,12.10
2023-05-16T01:19:50.204Z,12.00
2023-05-16T01:20:02.586Z,12.00
2023-05-16T01:20:13.290Z,12.20
2023-05-16T01:20:24.014Z,11.30
2023-05-16T01:20:37.479Z,11.40
2023-05-16T01:20:48.139Z,11.60
2023-05-16T01:20:58.853Z,11.90
2023-05-16T01:21:09.612Z,11.90
2023-05-16T01:21:20.292Z,11.90
2023-05-16T01:21:30.993Z,11.60
2023-05-16T01:21:42.717Z,12.10
2023-05-16T01:21:53.706Z,12.10
2023-05-16T01:22:04.402Z,12.90
2023-05-16T01:22:16.133Z,12.00
2023-05-16T01:22:26.807Z,11.50
2023-05-16T01:22:37.503Z,11.70
2023-05-16T01:22:48.263Z,11.70
2023-05-16T01:22:58.961Z,11.70
2023-05-16T01:23:10.645Z,11.20
2023-05-16T01:23:22.342Z,11.40
2023-05-16T01:23:34.038Z,11.60
2023-05-16T01:23:47.075Z,11.30
2023-05-16T01:23:59.522Z,10.90
2023-05-16T01:24:10.279Z,11.70
2023-05-16T01:24:20.981Z,12.40
2023-05-16T01:24:31.677Z,13.10
2023-05-16T01:24:42.360Z,12.50
2023-05-16T01:24:56.047Z,11.70
2023-05-16T01:25:06.758Z,11.40
2023-05-16T01:25:17.482Z,11.50
2023-05-16T01:25:29.272Z,11.30
2023-05-16T01:25:40.921Z,11.50
2023-05-16T01:25:51.657Z,11.90
2023-05-16T01:26:04.144Z,11.90
2023-05-16T01:26:15.805Z,11.30
2023-05-16T01:26:26.493Z,11.50
2023-05-16T01:26:37.242Z,11.50
2023-05-16T01:26:47.961Z,11.90
2023-05-16T01:26:58.661Z,11.70
2023-05-16T01:27:10.844Z,12.10
2023-05-16T01:27:23.012Z,12.50
2023-05-16T01:27:34.688Z,12.50
2023-05-16T01:27:45.402Z,12.20
2023-05-16T01:27:56.213Z,11.80
2023-05-16T01:28:09.376Z,11.20
2023-05-16T01:28:21.778Z,11.30
2023-05-16T01:28:32.506Z,12.30
2023-05-16T01:28:44.919Z,13.00
2023-05-16T01:28:55.656Z,12.90
2023-05-16T01:29:07.300Z,12.00
2023-05-16T01:29:18.008Z,12.40
2023-05-16T01:29:28.718Z,12.00
2023-05-16T01:29:40.371Z,11.60
2023-05-16T01:29:51.118Z,11.50
2023-05-16T01:30:04.542Z,11.50
2023-05-16T01:30:15.232Z,12.10
2023-05-16T01:30:25.942Z,12.50
2023-05-16T01:30:37.618Z,12.10
2023-05-16T01:30:48.349Z,11.60
2023-05-16T01:31:00.063Z,11.50
2023-05-16T01:31:12.855Z,11.60
2023-05-16T01:31:23.646Z,12.00
2023-05-16T01:31:35.332Z,12.20
2023-05-16T01:31:47.839Z,12.30
2023-05-16T01:31:59.711Z,11.40
2023-05-16T01:32:10.477Z,11.70
2023-05-16T01:32:21.205Z,12.20
2023-05-16T01:32:32.908Z,12.50
2023-05-16T01:32:45.602Z,11.60
2023-05-16T01:32:57.296Z,11.50
2023-05-16T01:33:08.025Z,11.70
2023-05-16T01:33:18.744Z,12.20
2023-05-16T01:33:31.130Z,12.40
2023-05-16T01:33:43.574Z,11.90
2023-05-16T01:33:56.774Z,12.90
2023-05-16T01:34:09.688Z,13.20
2023-05-16T01:34:22.908Z,13.10
2023-05-16T01:34:33.649Z,12.40
2023-05-16T01:34:44.372Z,11.90
2023-05-16T01:34:55.078Z,12.00
2023-05-16T01:35:06.756Z,11.40
2023-05-16T01:35:19.159Z,11.60
2023-05-16T01:35:30.827Z,11.50
2023-05-16T01:35:41.541Z,11.90
2023-05-16T01:35:53.951Z,11.90
2023-05-16T01:36:06.328Z,12.60
2023-05-16T01:36:18.493Z,12.30
2023-05-16T01:36:30.653Z,12.20
2023-05-16T01:36:43.094Z,11.80
2023-05-16T01:36:55.277Z,11.80
2023-05-16T01:37:07.672Z,11.90
2023-05-16T01:37:18.370Z,11.70
2023-05-16T01:37:29.076Z,12.10
2023-05-16T01:37:40.771Z,12.10
2023-05-16T01:37:51.470Z,11.60
2023-05-16T01:38:03.892Z,11.50
2023-05-16T01:38:16.056Z,11.70
2023-05-16T01:38:28.500Z,11.50
2023-05-16T01:38:39.203Z,11.60
2023-05-16T01:38:52.372Z,11.80
2023-05-16T01:39:05.565Z,12.90
2023-05-16T01:39:16.253Z,13.10
2023-05-16T01:39:27.933Z,13.00
2023-05-16T01:39:38.687Z,12.40
2023-05-16T01:39:50.376Z,12.10
2023-05-16T01:40:02.778Z,12.30
2023-05-16T01:40:13.480Z,12.20
2023-05-16T01:40:25.693Z,12.00
2023-05-16T01:40:36.397Z,11.80
2023-05-16T01:40:47.102Z,11.80
2023-05-16T01:40:57.818Z,11.50
2023-05-16T01:41:10.509Z,11.40
2023-05-16T01:41:21.228Z,11.20
2023-05-16T01:41:33.656Z,11.40
2023-05-16T01:41:44.395Z,11.80
2023-05-16T01:41:56.050Z,12.20
2023-05-16T01:42:08.202Z,11.90
2023-05-16T01:42:18.919Z,11.70
2023-05-16T01:42:30.592Z,11.70
2023-05-16T01:42:41.321Z,12.10
2023-05-16T01:42:53.715Z,11.60
2023-05-16T01:43:04.429Z,11.90
2023-05-16T01:43:15.146Z,12.20
2023-05-16T01:43:25.858Z,12.10
2023-05-16T01:43:38.229Z,12.10
2023-05-16T01:43:50.658Z,11.60
2023-05-16T01:44:03.834Z,11.70
2023-05-16T01:44:16.280Z,11.00
2023-05-16T01:44:28.695Z,11.10
2023-05-16T01:44:41.909Z,11.80
2023-05-16T01:44:54.198Z,11.70
2023-05-16T01:45:04.976Z,11.60
2023-05-16T01:45:15.759Z,11.20
2023-05-16T01:45:26.746Z,12.10
2023-05-16T01:45:39.389Z,12.30
2023-05-16T01:45:50.135Z,12.40
2023-05-16T01:46:02.594Z,12.60
2023-05-16T01:46:14.508Z,12.20
2023-05-16T01:46:25.289Z,12.10
2023-05-16T01:46:37.727Z,11.70
2023-05-16T01:46:49.412Z,12.00
2023-05-16T01:47:01.858Z,11.80
2023-05-16T01:47:13.781Z,11.80
2023-05-16T01:47:24.581Z,11.80
2023-05-16T01:47:36.310Z,12.20
2023-05-16T01:47:48.718Z,11.90
2023-05-16T01:48:00.463Z,11.90
2023-05-16T01:48:11.230Z,12.10
2023-05-16T01:48:22.916Z,12.40
2023-05-16T01:48:34.645Z,12.20
2023-05-16T01:48:46.306Z,12.30
2023-05-16T01:48:57.540Z,11.70
2023-05-16T01:49:09.947Z,11.50
2023-05-16T01:49:20.655Z,11.40
2023-05-16T01:49:31.357Z,11.30
2023-05-16T01:49:43.765Z,11.80
2023-05-16T01:49:54.461Z,11.50
2023-05-16T01:50:05.156Z,11.20
2023-05-16T01:50:15.865Z,11.10
2023-05-16T01:50:27.557Z,11.30
2023-05-16T01:50:38.264Z,11.80
2023-05-16T01:50:48.973Z,11.80
2023-05-16T01:51:01.148Z,12.50
2023-05-16T01:51:13.073Z,12.70
2023-05-16T01:51:23.765Z,12.70
2023-05-16T01:51:36.148Z,11.90
2023-05-16T01:51:46.847Z,11.60
2023-05-16T01:51:57.569Z,11.20
2023-05-16T01:52:08.252Z,11.10
2023-05-16T01:52:18.955Z,11.20
2023-05-16T01:52:30.650Z,11.80
2023-05-16T01:52:42.387Z,11.80
2023-05-16T01:52:54.060Z,12.00
2023-05-16T01:53:04.762Z,11.90
2023-05-16T01:53:16.917Z,11.90
2023-05-16T01:53:30.093Z,12.10
2023-05-16T01:53:41.807Z,11.40
2023-05-16T01:53:54.257Z,11.70
2023-05-16T01:54:06.425Z,12.90
2023-05-16T01:54:18.869Z,12.60
2023-05-16T01:54:29.623Z,11.10
2023-05-16T01:54:40.337Z,11.60
2023-05-16T01:54:51.072Z,12.00
2023-05-16T01:55:03.777Z,12.00
2023-05-16T01:55:14.471Z,12.40
2023-05-16T01:55:25.509Z,12.00
2023-05-16T01:55:37.401Z,11.80
2023-05-16T01:55:48.104Z,11.60
2023-05-16T01:56:01.750Z,11.60
2023-05-16T01:56:14.938Z,11.50
2023-05-16T01:56:26.627Z,11.00
2023-05-16T01:56:37.335Z,11.10
2023-05-16T01:56:48.010Z,12.10
2023-05-16T01:56:58.705Z,11.90
2023-05-16T01:57:10.402Z,11.00
2023-05-16T01:57:22.089Z,10.60
2023-05-16T01:57:33.796Z,10.60
2023-05-16T01:57:44.488Z,10.90
2023-05-16T01:57:55.227Z,11.10
2023-05-16T01:58:05.969Z,11.00
2023-05-16T01:58:17.610Z,11.20
2023-05-16T01:58:29.653Z,11.40
2023-05-16T01:58:41.818Z,11.20
2023-05-16T01:58:54.343Z,11.10
2023-05-16T01:59:05.049Z,9.80
2023-05-16T01:59:15.797Z,9.60
2023-05-16T01:59:27.519Z,9.80
2023-05-16T01:59:38.568Z,10.20
2023-05-16T01:59:50.480Z,10.60
2023-05-16T02:00:02.871Z,10.50
2023-05-16T02:00:13.577Z,10.20
2023-05-16T02:00:24.297Z,10.10
2023-05-16T02:00:36.017Z,10.20
2023-05-16T02:00:49.711Z,11.20
2023-05-16T02:01:02.185Z,11.30
2023-05-16T02:01:14.520Z,10.30
2023-05-16T02:01:25.265Z,9.60
2023-05-16T02:01:36.015Z,9.70
2023-05-16T02:01:47.661Z,10.10
2023-05-16T02:01:59.351Z,10.10
2023-05-16T02:02:10.049Z,10.30
2023-05-16T02:02:22.448Z,11.00
2023-05-16T02:02:33.148Z,10.90
2023-05-16T02:02:43.829Z,11.80
2023-05-16T02:02:54.547Z,11.70
2023-05-16T02:03:05.282Z,10.80
2023-05-16T02:03:16.664Z,10.60
2023-05-16T02:03:27.409Z,10.30
2023-05-16T02:03:39.868Z,10.80
2023-05-16T02:03:50.597Z,11.00
2023-05-16T02:04:02.286Z,10.60
2023-05-16T02:04:13.110Z,9.90
2023-05-16T02:04:23.960Z,10.20
2023-05-16T02:04:37.127Z,10.00
2023-05-16T02:04:48.872Z,11.00
2023-05-16T02:04:59.541Z,10.60
2023-05-16T02:05:11.441Z,10.80
2023-05-16T02:05:24.211Z,10.60
2023-05-16T02:05:36.633Z,10.60
2023-05-16T02:05:47.345Z,10.90
2023-05-16T02:06:00.141Z,10.80
2023-05-16T02:06:10.982Z,9.70
2023-05-16T02:06:22.678Z,9.00
2023-05-16T02:06:34.379Z,9.30
2023-05-16T02:06:46.576Z,9.60
2023-05-16T02:06:57.342Z,9.50
2023-05-16T02:07:08.006Z,9.50
2023-05-16T02:07:18.727Z,9.60
2023-05-16T02:07:31.904Z,10.10
2023-05-16T02:07:43.600Z,10.60
2023-05-16T02:07:56.542Z,10.20
2023-05-16T02:08:07.293Z,10.30
2023-05-16T02:08:19.743Z,10.00
2023-05-16T02:08:32.905Z,9.70
2023-05-16T02:08:45.340Z,10.40
2023-05-16T02:08:56.014Z,10.30
2023-05-16T02:09:07.691Z,10.60
2023-05-16T02:09:18.389Z,9.80
2023-05-16T02:09:31.555Z,9.80
2023-05-16T02:09:42.301Z,9.50
2023-05-16T02:09:53.014Z,9.70
2023-05-16T02:10:04.711Z,9.50
2023-05-16T02:10:15.422Z,9.50
2023-05-16T02:10:27.148Z,9.60
2023-05-16T02:10:39.317Z,9.80
2023-05-16T02:10:50.023Z,9.60
2023-05-16T02:11:03.192Z,9.40
2023-05-16T02:11:15.588Z,8.90
2023-05-16T02:11:26.309Z,9.10
2023-05-16T02:11:37.021Z,9.40
2023-05-16T02:11:47.745Z,9.80
2023-05-16T02:12:00.156Z,10.00
2023-05-16T02:12:12.530Z,10.30
2023-05-16T02:12:23.215Z,10.00
2023-05-16T02:12:33.956Z,9.20
2023-05-16T02:12:46.619Z,9.00
2023-05-16T02:12:58.278Z,8.70
2023-05-16T02:13:08.976Z,8.90
2023-05-16T02:13:20.647Z,9.20
2023-05-16T02:13:31.409Z,9.40
2023-05-16T02:13:43.085Z,8.90
2023-05-16T02:13:53.769Z,8.80
2023-05-16T02:14:04.500Z,8.60
2023-05-16T02:14:16.668Z,9.00
2023-05-16T02:14:27.382Z,9.00
2023-05-16T02:14:40.570Z,8.60
2023-05-16T02:14:52.285Z,8.80
2023-05-16T02:15:05.502Z,8.80
2023-05-16T02:15:17.883Z,9.40
2023-05-16T02:15:28.826Z,9.30
2023-05-16T02:15:40.624Z,8.80
2023-05-16T02:15:53.034Z,8.50
2023-05-16T02:16:03.739Z,9.00
2023-05-16T02:16:16.301Z,9.10
2023-05-16T02:16:27.026Z,9.20
2023-05-16T02:16:38.830Z,9.10
2023-05-16T02:16:50.582Z,9.20
2023-05-16T02:17:01.484Z,9.40
2023-05-16T02:17:12.307Z,9.30
2023-05-16T02:17:23.978Z,9.20
2023-05-16T02:17:34.695Z,9.30
2023-05-16T02:17:45.426Z,9.50
2023-05-16T02:17:57.847Z,9.40
2023-05-16T02:18:08.612Z,9.10
2023-05-16T02:18:21.021Z,9.20
2023-05-16T02:18:31.753Z,9.20
2023-05-16T02:18:42.878Z,9.00
2023-05-16T02:18:55.103Z,8.60
2023-05-16T02:19:07.641Z,8.00
2023-05-16T02:19:20.113Z,8.20
2023-05-16T02:19:32.505Z,8.30
2023-05-16T02:19:44.198Z,8.60
2023-05-16T02:19:55.464Z,9.20
2023-05-16T02:20:06.431Z,9.10
2023-05-16T02:20:18.129Z,9.00
2023-05-16T02:20:28.834Z,8.70
2023-05-16T02:20:40.491Z,9.00
2023-05-16T02:20:51.202Z,9.30
2023-05-16T02:21:02.950Z,8.80
2023-05-16T02:21:14.604Z,8.70
2023-05-16T02:21:25.372Z,8.80
2023-05-16T02:21:36.111Z,8.90
2023-05-16T02:21:46.807Z,8.30
2023-05-16T02:22:00.008Z,8.30
2023-05-16T02:22:10.711Z,8.50
2023-05-16T02:22:21.419Z,8.70
2023-05-16T02:22:33.081Z,8.90
2023-05-16T02:22:45.273Z,8.60
2023-05-16T02:22:55.978Z,8.60
2023-05-16T02:23:06.674Z,8.30
2023-05-16T02:23:17.392Z,8.40
2023-05-16T02:23:29.099Z,8.40
2023-05-16T02:23:41.300Z,8.60
2023-05-16T02:23:53.688Z,8.40
2023-05-16T02:24:04.391Z,7.50
2023-05-16T02:24:16.825Z,7.60
2023-05-16T02:24:27.571Z,7.90
2023-05-16T02:24:38.295Z,8.20
2023-05-16T02:24:50.714Z,8.00
2023-05-16T02:25:01.483Z,8.30
2023-05-16T02:25:13.852Z,8.40
2023-05-16T02:25:25.796Z,8.20
2023-05-16T02:25:37.570Z,7.80
2023-05-16T02:25:48.282Z,7.80
2023-05-16T02:25:59.033Z,8.20
2023-05-16T02:26:10.740Z,7.80
2023-05-16T02:26:22.404Z,7.50
2023-05-16T02:26:36.098Z,7.70
2023-05-16T02:26:46.793Z,7.90
2023-05-16T02:26:59.197Z,8.60
2023-05-16T02:27:10.027Z,8.20
2023-05-16T02:27:21.750Z,8.20
2023-05-16T02:27:33.403Z,8.30
2023-05-16T02:27:44.111Z,8.70
2023-05-16T02:27:55.852Z,8.10
2023-05-16T02:28:08.242Z,8.10
2023-05-16T02:28:19.901Z,8.00
2023-05-16T02:28:30.604Z,8.10